^^
Grace C. Lehan Memorial Weather Station Historical Data
Daily Summary for June 8, 2021 Units:  Metric    English   Both
Daily Weekly Monthly Yearly
  High: Low: Average:
Temperature: 10.9 °C 7.8 °C 9.1 °C
Dew Point: 5.7 °C 4.6 °C 5.1 °C
Humidity: 84% 66.1% 76%
Wind Speed: 2.4km/h 0km/h 0.2km/h
Wind Gust: 11.3km/h - -
Wind- - SE
Pressure: 1011.4 hPa 1009 hPa -
Precipitation: 0 mm    
 
 
Tabular Data for June 8, 2021
Time Temperature Dew Point Pressure Wind Wind Speed Wind Gust Humidity Rainfall Rate (Hourly) solar
00:00 10 °C 4.8 °C 1011.1 hPa Calm     70% 0 mm 0 W/m2
00:09 9.9 °C 4.7 °C 1011.4 hPa Calm     70% 0 mm 0 W/m2
00:14 9.9 °C 4.7 °C 1011.4 hPa Calm     70% 0 mm 0 W/m2
00:19 9.8 °C 4.6 °C 1011.4 hPa Calm     70% 0 mm 0 W/m2
00:24 9.8 °C 4.6 °C 1011.4 hPa Calm     70% 0 mm 0 W/m2
00:29 9.8 °C 4.7 °C 1011.4 hPa Calm     70.6% 0 mm 0 W/m2
00:34 9.8 °C 4.8 °C 1011.4 hPa Calm     71% 0 mm 0 W/m2
00:39 9.8 °C 4.8 °C 1011.4 hPa Calm     71% 0 mm 0 W/m2
00:44 9.8 °C 4.7 °C 1011.4 hPa Calm     70.7% 0 mm 0 W/m2
00:49 9.8 °C 5 °C 1011.4 hPa Calm     71.8% 0 mm 0 W/m2
00:54 9.8 °C 5.2 °C 1011.1 hPa Calm     72.9% 0 mm 0 W/m2
00:59 9.8 °C 5.4 °C 1011.1 hPa Calm     73.8% 0 mm 0 W/m2
01:04 9.8 °C 5.4 °C 1010.7 hPa Calm     74.1% 0 mm 0 W/m2
01:09 9.8 °C 5.6 °C 1010.7 hPa Calm     75% 0 mm 0 W/m2
01:14 9.8 °C 5.6 °C 1010.7 hPa Calm     75% 0 mm 0 W/m2
01:19 9.8 °C 5.6 °C 1010.7 hPa Calm     75% 0 mm 0 W/m2
01:24 9.8 °C 5.6 °C 1010.7 hPa Calm     74.9% 0 mm 0 W/m2
01:29 9.8 °C 5.4 °C 1010.4 hPa Calm     74% 0 mm 0 W/m2
01:34 9.7 °C 5.3 °C 1010.4 hPa Calm     73.7% 0 mm 0 W/m2
01:39 9.7 °C 5.3 °C 1010.4 hPa Calm     74.4% 0 mm 0 W/m2
01:44 9.7 °C 5.5 °C 1010.4 hPa Calm     75.4% 0 mm 0 W/m2
01:49 9.6 °C 5.6 °C 1010.4 hPa Calm     76% 0 mm 0 W/m2
01:54 9.6 °C 5.6 °C 1010.4 hPa Calm     76% 0 mm 0 W/m2
01:59 9.6 °C 5.5 °C 1010.4 hPa Calm     75.9% 0 mm 0 W/m2
02:04 9.5 °C 5.3 °C 1010.4 hPa Calm     75% 0 mm 0 W/m2
02:09 9.4 °C 5.1 °C 1010.4 hPa Calm     74.2% 0 mm 0 W/m2
02:14 9.4 °C 4.9 °C 1010 hPa Calm     73.6% 0 mm 0 W/m2
02:19 9.4 °C 4.8 °C 1010 hPa Calm     73% 0 mm 0 W/m2
02:24 9.3 °C 4.9 °C 1010 hPa Calm     73.7% 0 mm 0 W/m2
02:29 9.3 °C 4.9 °C 1010 hPa Calm     74% 0 mm 0 W/m2
02:34 9.3 °C 4.9 °C 1010 hPa Calm     74% 0 mm 0 W/m2
02:39 9.3 °C 4.9 °C 1010 hPa Calm     74% 0 mm 0 W/m2
02:44 9.2 °C 4.8 °C 1010 hPa Calm     74% 0 mm 0 W/m2
02:49 9.2 °C 4.8 °C 1010 hPa Calm     74% 0 mm 0 W/m2
02:54 9.2 °C 4.8 °C 1009.7 hPa Calm     74% 0 mm 0 W/m2
02:59 9.1 °C 4.8 °C 1009.7 hPa Calm     74.3% 0 mm 0 W/m2
03:04 9.1 °C 4.9 °C 1009.7 hPa Calm     75.5% 0 mm 0 W/m2
03:09 9 °C 5 °C 1009.7 hPa Calm     76.1% 0 mm 0 W/m2
03:14 8.9 °C 5.1 °C 1009.7 hPa Calm     76.9% 0 mm 0 W/m2
03:19 8.9 °C 5 °C 1009.7 hPa Calm     76.7% 0 mm 0 W/m2
03:24 8.8 °C 4.8 °C 1009.7 hPa Calm     76% 0 mm 0 W/m2
03:29 8.8 °C 4.8 °C 1009.7 hPa Calm     76% 0 mm 0 W/m2
03:34 8.7 °C 4.8 °C 1009.7 hPa Calm     76.6% 0 mm 0 W/m2
03:39 8.7 °C 4.8 °C 1009.7 hPa Calm     77% 0 mm 0 W/m2
03:44 8.6 °C 4.8 °C 1009.7 hPa Calm     77% 0 mm 0 W/m2
03:49 8.5 °C 4.7 °C 1009.4 hPa Calm     77% 0 mm 0 W/m2
03:54 8.4 °C 4.7 °C 1009.4 hPa Calm     77% 0 mm 0 W/m2
03:59 8.4 °C 4.7 °C 1009.4 hPa Calm     77% 0 mm 0 W/m2
04:00 8.4 °C 4.8 °C 1009.4 hPa Calm     78% 0 mm 0 W/m2
04:09 8.3 °C 4.8 °C 1009 hPa Calm     78.5% 0 mm 0 W/m2
04:14 8.3 °C 4.9 °C 1009 hPa Calm     79.1% 0 mm 0 W/m2
04:19 8.3 °C 4.9 °C 1009 hPa Calm     79.6% 0 mm 0 W/m2
04:24 8.2 °C 5 °C 1009 hPa Calm     80% 0 mm 0 W/m2
04:29 8.2 °C 5 °C 1009 hPa Calm     80% 0 mm 0 W/m2
04:34 8.2 °C 4.9 °C 1009 hPa Calm     80% 0 mm 0 W/m2
04:39 8.2 °C 5.1 °C 1009 hPa Calm     81% 0 mm 0 W/m2
04:44 8.1 °C 5.1 °C 1009 hPa Calm     81% 0 mm 0 W/m2
04:49 8.1 °C 5.2 °C 1009 hPa Calm     81.8% 0 mm 0 W/m2
04:54 8.1 °C 5.2 °C 1009 hPa Calm     82% 0 mm 0 W/m2
04:59 8.1 °C 5.2 °C 1009 hPa Calm     82% 0 mm 0 W/m2
05:04 8.1 °C 5.2 °C 1009 hPa Calm     82% 0 mm 0 W/m2
05:09 8.1 °C 5.2 °C 1009.4 hPa Calm     82% 0 mm 0 W/m2
05:14 8.1 °C 5.2 °C 1009.4 hPa Calm     82% 0 mm 0 W/m2
05:19 8.1 °C 5.2 °C 1009 hPa Calm     82% 0 mm 0 W/m2
05:24 8.1 °C 5.2 °C 1009 hPa Calm     82.3% 0 mm 0 W/m2
05:29 8.1 °C 5.3 °C 1009 hPa Calm     82.8% 0 mm 0 W/m2
05:34 8.1 °C 5.3 °C 1009 hPa Calm     83% 0 mm 0 W/m2
05:39 8 °C 5.3 °C 1009 hPa Calm     83% 0 mm 0 W/m2
05:44 8 °C 5.3 °C 1009 hPa Calm     83.2% 0 mm 0 W/m2
05:49 7.9 °C 5.4 °C 1009 hPa Calm   1.6 km/h 84% 0 mm 0 W/m2
05:54 7.9 °C 5.4 °C 1009 hPa Calm   1.6 km/h 84% 0 mm 5 W/m2
05:59 7.9 °C 5.3 °C 1009 hPa Calm   1.6 km/h 83.5% 0 mm 7 W/m2
06:04 7.9 °C 5.3 °C 1009 hPa Calm   1.6 km/h 83.5% 0 mm 11 W/m2
06:09 7.9 °C 5.2 °C 1009 hPa Calm     83.3% 0 mm 12 W/m2
06:14 7.8 °C 5.1 °C 1009 hPa Calm     83% 0 mm 14 W/m2
06:19 7.8 °C 5.1 °C 1009 hPa Calm     83% 0 mm 14 W/m2
06:24 7.9 °C 5.2 °C 1009.4 hPa SSW 0.2 km/h 3.2 km/h 83% 0 mm 16 W/m2
06:29 7.9 °C 5.2 °C 1009 hPa SSW 0.5 km/h 6.4 km/h 83% 0 mm 18 W/m2
06:34 7.9 °C 5.1 °C 1009 hPa Calm   6.4 km/h 82.6% 0 mm 19 W/m2
06:39 7.9 °C 5.1 °C 1009.4 hPa Calm     82% 0 mm 21 W/m2
06:44 8 °C 5.1 °C 1009.4 hPa Calm     82% 0 mm 25 W/m2
06:49 8.1 °C 5.1 °C 1009.4 hPa SSW 0.2 km/h 3.2 km/h 81.8% 0 mm 30 W/m2
06:54 8.1 °C 5.1 °C 1009.4 hPa SSW 0.2 km/h 3.2 km/h 81% 0 mm 35 W/m2
06:59 8.2 °C 5.1 °C 1009.4 hPa SSW 0.2 km/h 3.2 km/h 81% 0 mm 44 W/m2
07:04 8.3 °C 5.2 °C 1009.4 hPa Calm   3.2 km/h 81% 0 mm 51 W/m2
07:09 8.4 °C 5.3 °C 1009.7 hPa Calm     80.9% 0 mm 58 W/m2
07:14 8.5 °C 5.3 °C 1009.7 hPa Calm     80.4% 0 mm 63 W/m2
07:19 8.6 °C 5.6 °C 1009.7 hPa Calm     81% 0 mm 69 W/m2
07:24 8.7 °C 5.5 °C 1009.7 hPa Calm     80.1% 0 mm 76 W/m2
07:29 8.8 °C 5.6 °C 1009.7 hPa Calm     80% 0 mm 81 W/m2
07:30 8.9 °C 5.7 °C 1009.7 hPa Calm     80% 0 mm 64 W/m2
08:04 9.6 °C 5.2 °C 1010 hPa Calm     74% 0 mm 95 W/m2
08:09 9.7 °C 5.2 °C 1010 hPa Calm     73.8% 0 mm 95 W/m2
08:14 9.7 °C 5.2 °C 1010.4 hPa Calm   1.6 km/h 73.5% 0 mm 93 W/m2
08:19 9.8 °C 5 °C 1010.4 hPa Calm   1.6 km/h 72.1% 0 mm 93 W/m2
08:24 9.8 °C 4.8 °C 1010.4 hPa NNW 0.2 km/h 4.8 km/h 71% 0 mm 95 W/m2
08:29 9.8 °C 4.8 °C 1010.7 hPa Calm   4.8 km/h 70.6% 0 mm 102 W/m2
08:34 9.9 °C 4.7 °C 1010.7 hPa Calm   4.8 km/h 70% 0 mm 111 W/m2
08:39 9.9 °C 4.9 °C 1010.7 hPa NE 1 km/h 8 km/h 70.7% 0 mm 120 W/m2
08:44 10 °C 4.6 °C 1010.7 hPa Calm   8 km/h 69.2% 0 mm 127 W/m2
08:49 10 °C 4.6 °C 1010.7 hPa ENE 0.5 km/h 8 km/h 69.1% 0 mm 137 W/m2
08:54 10 °C 4.7 °C 1010.7 hPa NE 0.3 km/h 8 km/h 69.7% 0 mm 156 W/m2
08:59 10.1 °C 5 °C 1010.7 hPa ENE 1.1 km/h 8 km/h 70.6% 0 mm 171 W/m2
09:04 10.2 °C 5.2 °C 1010.7 hPa Calm   8 km/h 71.2% 0 mm 181 W/m2
09:09 10.3 °C 5.4 °C 1010.7 hPa Calm   3.2 km/h 71.7% 0 mm 195 W/m2
09:14 10.5 °C 5.6 °C 1010.7 hPa Calm   3.2 km/h 71.5% 0 mm 220 W/m2
09:19 10.6 °C 5.5 °C 1010.7 hPa ENE 0.2 km/h 3.2 km/h 70.6% 0 mm 234 W/m2
09:24 10.8 °C 5.3 °C 1011.1 hPa ENE 0.2 km/h 4.8 km/h 68.8% 0 mm 236 W/m2
09:29 10.8 °C 5 °C 1011.1 hPa ENE 0.8 km/h 6.4 km/h 67.2% 0 mm 234 W/m2
09:34 10.8 °C 4.8 °C 1011.1 hPa ESE 1 km/h 8 km/h 66.1% 0 mm 230 W/m2
09:39 10.8 °C 4.8 °C 1011.1 hPa NE 1.8 km/h 11.3 km/h 66.4% 0 mm 230 W/m2
09:43 10.9 °C 4.8 °C 1011.1 hPa NE 2.4 km/h 11.3 km/h 66.3% 0 mm 229 W/m2
Hartford County Weather
Compliments of Weather Underground - 2 mb